sensor_id;sensor_type;location;lat;lon;timestamp;P1;durP1;ratioP1;P2;durP2;ratioP2
65037;SDS011;51605;47.040;15.294;2022-12-18T00:01:35;24.15;;;22.30;;
65037;SDS011;51605;47.040;15.294;2022-12-18T00:04:03;19.35;;;17.85;;
65037;SDS011;51605;47.040;15.294;2022-12-18T00:06:30;38.08;;;35.40;;
65037;SDS011;51605;47.040;15.294;2022-12-18T00:11:25;20.55;;;19.10;;
65037;SDS011;51605;47.040;15.294;2022-12-18T00:13:53;28.60;;;26.52;;
65037;SDS011;51605;47.040;15.294;2022-12-18T00:16:20;26.10;;;24.17;;
65037;SDS011;51605;47.040;15.294;2022-12-18T00:18:51;36.85;;;34.15;;
65037;SDS011;51605;47.040;15.294;2022-12-18T00:21:19;42.33;;;39.30;;
65037;SDS011;51605;47.040;15.294;2022-12-18T00:23:46;32.20;;;29.90;;
65037;SDS011;51605;47.040;15.294;2022-12-18T00:28:40;23.65;;;21.85;;
65037;SDS011;51605;47.040;15.294;2022-12-18T00:31:09;19.80;;;18.40;;
65037;SDS011;51605;47.040;15.294;2022-12-18T00:33:36;16.88;;;15.45;;
65037;SDS011;51605;47.040;15.294;2022-12-18T00:40:55;18.55;;;17.17;;
65037;SDS011;51605;47.040;15.294;2022-12-18T00:43:21;19.00;;;17.50;;
65037;SDS011;51605;47.040;15.294;2022-12-18T00:45:47;17.63;;;16.17;;
65037;SDS011;51605;47.040;15.294;2022-12-18T00:48:12;20.55;;;18.98;;
65037;SDS011;51605;47.040;15.294;2022-12-18T00:50:38;15.00;;;13.90;;
65037;SDS011;51605;47.040;15.294;2022-12-18T00:53:04;37.22;;;34.55;;
65037;SDS011;51605;47.040;15.294;2022-12-18T00:55:29;24.10;;;22.27;;
65037;SDS011;51605;47.040;15.294;2022-12-18T00:57:55;36.25;;;33.60;;
65037;SDS011;51605;47.040;15.294;2022-12-18T01:00:21;18.75;;;17.20;;
65037;SDS011;51605;47.040;15.294;2022-12-18T01:02:47;17.40;;;16.00;;
65037;SDS011;51605;47.040;15.294;2022-12-18T01:05:13;13.20;;;12.15;;
65037;SDS011;51605;47.040;15.294;2022-12-18T01:07:39;12.65;;;11.65;;
65037;SDS011;51605;47.040;15.294;2022-12-18T01:10:05;16.33;;;15.10;;
65037;SDS011;51605;47.040;15.294;2022-12-18T01:12:31;17.52;;;16.27;;
65037;SDS011;51605;47.040;15.294;2022-12-18T01:14:57;12.82;;;11.73;;
65037;SDS011;51605;47.040;15.294;2022-12-18T01:17:23;15.60;;;14.40;;
65037;SDS011;51605;47.040;15.294;2022-12-18T01:19:48;15.98;;;14.80;;
65037;SDS011;51605;47.040;15.294;2022-12-18T01:22:14;15.65;;;14.45;;
65037;SDS011;51605;47.040;15.294;2022-12-18T01:24:40;16.23;;;15.02;;
65037;SDS011;51605;47.040;15.294;2022-12-18T01:27:06;17.63;;;16.40;;
65037;SDS011;51605;47.040;15.294;2022-12-18T01:29:31;29.80;;;27.63;;
65037;SDS011;51605;47.040;15.294;2022-12-18T01:31:57;10.73;;;9.82;;
65037;SDS011;51605;47.040;15.294;2022-12-18T01:34:23;14.77;;;13.65;;
65037;SDS011;51605;47.040;15.294;2022-12-18T01:36:49;39.00;;;36.13;;
65037;SDS011;51605;47.040;15.294;2022-12-18T01:39:17;34.10;;;31.63;;
65037;SDS011;51605;47.040;15.294;2022-12-18T01:41:43;58.03;;;53.80;;
65037;SDS011;51605;47.040;15.294;2022-12-18T01:47:24;31.15;;;28.90;;
65037;SDS011;51605;47.040;15.294;2022-12-18T01:49:54;23.92;;;22.30;;
65037;SDS011;51605;47.040;15.294;2022-12-18T01:52:20;21.25;;;19.65;;
65037;SDS011;51605;47.040;15.294;2022-12-18T01:54:48;38.03;;;35.38;;
65037;SDS011;51605;47.040;15.294;2022-12-18T01:57:16;35.33;;;32.78;;
65037;SDS011;51605;47.040;15.294;2022-12-18T01:59:42;47.38;;;44.03;;
65037;SDS011;51605;47.040;15.294;2022-12-18T02:02:11;51.42;;;47.83;;
65037;SDS011;51605;47.040;15.294;2022-12-18T02:04:38;39.55;;;36.72;;
65037;SDS011;51605;47.040;15.294;2022-12-18T02:07:18;62.22;;;57.72;;
65037;SDS011;51605;47.040;15.294;2022-12-18T02:09:47;41.30;;;38.42;;
65037;SDS011;51605;47.040;15.294;2022-12-18T02:12:26;49.20;;;45.60;;
65037;SDS011;51605;47.040;15.294;2022-12-18T02:20:23;35.50;;;32.95;;
65037;SDS011;51605;47.040;15.294;2022-12-18T02:28:18;45.92;;;42.53;;
65037;SDS011;51605;47.040;15.294;2022-12-18T02:30:47;24.30;;;22.67;;
65037;SDS011;51605;47.040;15.294;2022-12-18T02:33:13;32.35;;;30.15;;
65037;SDS011;51605;47.040;15.294;2022-12-18T02:35:40;44.85;;;41.65;;
65037;SDS011;51605;47.040;15.294;2022-12-18T02:38:07;22.05;;;20.48;;
65037;SDS011;51605;47.040;15.294;2022-12-18T02:40:34;35.08;;;32.67;;
65037;SDS011;51605;47.040;15.294;2022-12-18T02:43:11;42.08;;;39.28;;
65037;SDS011;51605;47.040;15.294;2022-12-18T02:45:47;30.85;;;28.70;;
65037;SDS011;51605;47.040;15.294;2022-12-18T02:48:16;34.30;;;31.85;;
65037;SDS011;51605;47.040;15.294;2022-12-18T02:50:45;32.15;;;29.90;;
65037;SDS011;51605;47.040;15.294;2022-12-18T02:59:10;29.55;;;27.48;;
65037;SDS011;51605;47.040;15.294;2022-12-18T03:04:28;16.58;;;15.40;;
65037;SDS011;51605;47.040;15.294;2022-12-18T03:07:02;35.20;;;32.70;;
65037;SDS011;51605;47.040;15.294;2022-12-18T03:09:35;24.92;;;23.10;;
65037;SDS011;51605;47.040;15.294;2022-12-18T03:12:27;44.42;;;41.22;;
65037;SDS011;51605;47.040;15.294;2022-12-18T03:17:38;32.83;;;30.52;;
65037;SDS011;51605;47.040;15.294;2022-12-18T03:20:10;26.73;;;24.98;;
65037;SDS011;51605;47.040;15.294;2022-12-18T03:22:42;20.58;;;19.13;;
65037;SDS011;51605;47.040;15.294;2022-12-18T03:25:12;14.85;;;13.80;;
65037;SDS011;51605;47.040;15.294;2022-12-18T03:27:41;29.75;;;27.73;;
65037;SDS011;51605;47.040;15.294;2022-12-18T03:30:10;42.17;;;39.10;;
65037;SDS011;51605;47.040;15.294;2022-12-18T03:32:53;29.77;;;27.70;;
65037;SDS011;51605;47.040;15.294;2022-12-18T03:35:22;15.48;;;14.38;;
65037;SDS011;51605;47.040;15.294;2022-12-18T03:37:52;22.73;;;21.13;;
65037;SDS011;51605;47.040;15.294;2022-12-18T03:40:19;20.67;;;19.33;;
65037;SDS011;51605;47.040;15.294;2022-12-18T03:42:55;26.52;;;24.73;;
65037;SDS011;51605;47.040;15.294;2022-12-18T03:45:32;16.40;;;15.30;;
65037;SDS011;51605;47.040;15.294;2022-12-18T03:55:53;35.13;;;32.78;;
65037;SDS011;51605;47.040;15.294;2022-12-18T03:58:23;37.33;;;34.72;;
65037;SDS011;51605;47.040;15.294;2022-12-18T04:00:50;35.33;;;32.75;;
65037;SDS011;51605;47.040;15.294;2022-12-18T04:03:17;20.17;;;18.77;;
65037;SDS011;51605;47.040;15.294;2022-12-18T04:08:12;19.48;;;18.15;;
65037;SDS011;51605;47.040;15.294;2022-12-18T04:10:38;20.33;;;18.85;;
65037;SDS011;51605;47.040;15.294;2022-12-18T04:13:03;20.48;;;18.95;;
65037;SDS011;51605;47.040;15.294;2022-12-18T04:15:29;32.15;;;29.88;;
65037;SDS011;51605;47.040;15.294;2022-12-18T04:17:59;21.48;;;20.00;;
65037;SDS011;51605;47.040;15.294;2022-12-18T04:20:25;22.17;;;20.67;;
65037;SDS011;51605;47.040;15.294;2022-12-18T04:22:51;41.60;;;38.55;;
65037;SDS011;51605;47.040;15.294;2022-12-18T04:25:16;25.42;;;23.65;;
65037;SDS011;51605;47.040;15.294;2022-12-18T04:27:42;28.92;;;26.88;;
65037;SDS011;51605;47.040;15.294;2022-12-18T04:30:08;16.77;;;15.55;;
65037;SDS011;51605;47.040;15.294;2022-12-18T04:32:34;23.00;;;21.42;;
65037;SDS011;51605;47.040;15.294;2022-12-18T04:35:00;27.83;;;25.83;;
65037;SDS011;51605;47.040;15.294;2022-12-18T04:37:26;27.98;;;25.98;;
65037;SDS011;51605;47.040;15.294;2022-12-18T04:39:52;18.45;;;16.95;;
65037;SDS011;51605;47.040;15.294;2022-12-18T04:42:17;11.38;;;10.57;;
65037;SDS011;51605;47.040;15.294;2022-12-18T04:44:43;6.97;;;6.47;;
65037;SDS011;51605;47.040;15.294;2022-12-18T04:47:09;9.50;;;8.82;;
65037;SDS011;51605;47.040;15.294;2022-12-18T04:49:35;12.63;;;11.73;;
65037;SDS011;51605;47.040;15.294;2022-12-18T04:52:00;8.52;;;7.93;;
65037;SDS011;51605;47.040;15.294;2022-12-18T04:54:26;8.40;;;7.75;;
65037;SDS011;51605;47.040;15.294;2022-12-18T04:56:51;7.57;;;6.97;;
65037;SDS011;51605;47.040;15.294;2022-12-18T04:59:17;9.35;;;8.68;;
65037;SDS011;51605;47.040;15.294;2022-12-18T05:01:43;8.43;;;7.82;;
65037;SDS011;51605;47.040;15.294;2022-12-18T05:04:08;7.85;;;7.28;;
65037;SDS011;51605;47.040;15.294;2022-12-18T05:06:34;13.32;;;12.43;;
65037;SDS011;51605;47.040;15.294;2022-12-18T05:08:59;9.27;;;8.57;;
65037;SDS011;51605;47.040;15.294;2022-12-18T05:11:25;13.63;;;12.73;;
65037;SDS011;51605;47.040;15.294;2022-12-18T05:13:51;11.50;;;10.70;;
65037;SDS011;51605;47.040;15.294;2022-12-18T05:16:16;11.38;;;10.57;;
65037;SDS011;51605;47.040;15.294;2022-12-18T05:18:42;9.82;;;9.13;;
65037;SDS011;51605;47.040;15.294;2022-12-18T05:21:08;10.38;;;9.63;;
65037;SDS011;51605;47.040;15.294;2022-12-18T05:23:33;12.07;;;11.27;;
65037;SDS011;51605;47.040;15.294;2022-12-18T05:26:00;11.20;;;10.40;;
65037;SDS011;51605;47.040;15.294;2022-12-18T05:28:28;11.18;;;10.40;;
65037;SDS011;51605;47.040;15.294;2022-12-18T05:30:56;15.55;;;14.55;;
65037;SDS011;51605;47.040;15.294;2022-12-18T05:33:24;13.93;;;12.95;;
65037;SDS011;51605;47.040;15.294;2022-12-18T05:35:54;10.63;;;9.93;;
65037;SDS011;51605;47.040;15.294;2022-12-18T05:38:24;13.75;;;12.77;;
65037;SDS011;51605;47.040;15.294;2022-12-18T05:40:51;10.02;;;9.32;;
65037;SDS011;51605;47.040;15.294;2022-12-18T05:43:18;10.60;;;9.88;;
65037;SDS011;51605;47.040;15.294;2022-12-18T05:45:44;5.45;;;5.05;;
65037;SDS011;51605;47.040;15.294;2022-12-18T05:48:13;6.55;;;6.05;;
65037;SDS011;51605;47.040;15.294;2022-12-18T05:50:40;7.07;;;6.55;;
65037;SDS011;51605;47.040;15.294;2022-12-18T05:53:07;7.07;;;6.57;;
65037;SDS011;51605;47.040;15.294;2022-12-18T05:55:35;7.22;;;6.72;;
65037;SDS011;51605;47.040;15.294;2022-12-18T05:58:03;6.75;;;6.25;;
65037;SDS011;51605;47.040;15.294;2022-12-18T06:00:29;7.75;;;7.22;;
65037;SDS011;51605;47.040;15.294;2022-12-18T06:02:56;7.22;;;6.70;;
65037;SDS011;51605;47.040;15.294;2022-12-18T06:05:23;6.60;;;6.05;;
65037;SDS011;51605;47.040;15.294;2022-12-18T06:07:48;6.63;;;6.10;;
65037;SDS011;51605;47.040;15.294;2022-12-18T06:10:14;7.43;;;6.93;;
65037;SDS011;51605;47.040;15.294;2022-12-18T06:12:39;6.93;;;6.43;;
65037;SDS011;51605;47.040;15.294;2022-12-18T06:15:05;7.20;;;6.70;;
65037;SDS011;51605;47.040;15.294;2022-12-18T06:17:32;8.30;;;7.70;;
65037;SDS011;51605;47.040;15.294;2022-12-18T06:19:58;7.68;;;7.15;;
65037;SDS011;51605;47.040;15.294;2022-12-18T06:22:24;7.40;;;6.88;;
65037;SDS011;51605;47.040;15.294;2022-12-18T06:24:50;11.67;;;10.87;;
65037;SDS011;51605;47.040;15.294;2022-12-18T06:27:16;8.93;;;8.27;;
65037;SDS011;51605;47.040;15.294;2022-12-18T06:29:41;6.72;;;6.22;;
65037;SDS011;51605;47.040;15.294;2022-12-18T06:32:07;8.18;;;7.47;;
65037;SDS011;51605;47.040;15.294;2022-12-18T06:34:33;5.88;;;5.47;;
65037;SDS011;51605;47.040;15.294;2022-12-18T06:36:59;9.90;;;9.20;;
65037;SDS011;51605;47.040;15.294;2022-12-18T06:39:28;10.90;;;10.10;;
65037;SDS011;51605;47.040;15.294;2022-12-18T06:41:54;7.50;;;7.00;;
65037;SDS011;51605;47.040;15.294;2022-12-18T06:44:19;9.02;;;8.23;;
65037;SDS011;51605;47.040;15.294;2022-12-18T06:46:45;6.63;;;6.15;;
65037;SDS011;51605;47.040;15.294;2022-12-18T06:49:11;6.88;;;6.28;;
65037;SDS011;51605;47.040;15.294;2022-12-18T06:51:37;6.28;;;5.78;;
65037;SDS011;51605;47.040;15.294;2022-12-18T06:54:03;5.65;;;5.25;;
65037;SDS011;51605;47.040;15.294;2022-12-18T06:56:29;6.95;;;6.45;;
65037;SDS011;51605;47.040;15.294;2022-12-18T06:58:55;6.13;;;5.67;;
65037;SDS011;51605;47.040;15.294;2022-12-18T07:01:20;7.70;;;7.18;;
65037;SDS011;51605;47.040;15.294;2022-12-18T07:03:47;6.90;;;6.40;;
65037;SDS011;51605;47.040;15.294;2022-12-18T07:06:19;6.13;;;5.63;;
65037;SDS011;51605;47.040;15.294;2022-12-18T07:08:46;8.45;;;7.85;;
65037;SDS011;51605;47.040;15.294;2022-12-18T07:11:12;6.35;;;5.95;;
65037;SDS011;51605;47.040;15.294;2022-12-18T07:13:38;7.00;;;6.18;;
65037;SDS011;51605;47.040;15.294;2022-12-18T07:16:07;11.52;;;10.75;;
65037;SDS011;51605;47.040;15.294;2022-12-18T07:18:35;6.22;;;5.72;;
65037;SDS011;51605;47.040;15.294;2022-12-18T07:21:04;6.47;;;5.97;;
65037;SDS011;51605;47.040;15.294;2022-12-18T07:23:31;7.20;;;6.60;;
65037;SDS011;51605;47.040;15.294;2022-12-18T07:26:03;6.40;;;5.85;;
65037;SDS011;51605;47.040;15.294;2022-12-18T07:28:34;11.05;;;10.27;;
65037;SDS011;51605;47.040;15.294;2022-12-18T07:31:03;6.93;;;6.43;;
65037;SDS011;51605;47.040;15.294;2022-12-18T07:33:31;7.72;;;7.15;;
65037;SDS011;51605;47.040;15.294;2022-12-18T07:35:58;5.82;;;5.40;;
65037;SDS011;51605;47.040;15.294;2022-12-18T07:40:50;5.43;;;4.55;;
65037;SDS011;51605;47.040;15.294;2022-12-18T07:43:15;7.70;;;7.05;;
65037;SDS011;51605;47.040;15.294;2022-12-18T07:45:42;6.75;;;6.25;;
65037;SDS011;51605;47.040;15.294;2022-12-18T07:48:07;6.32;;;5.82;;
65037;SDS011;51605;47.040;15.294;2022-12-18T07:50:33;7.00;;;6.50;;
65037;SDS011;51605;47.040;15.294;2022-12-18T07:52:59;8.10;;;7.53;;
65037;SDS011;51605;47.040;15.294;2022-12-18T07:55:28;4.72;;;4.32;;
65037;SDS011;51605;47.040;15.294;2022-12-18T08:00:21;6.38;;;5.88;;
65037;SDS011;51605;47.040;15.294;2022-12-18T08:02:46;6.10;;;5.65;;
65037;SDS011;51605;47.040;15.294;2022-12-18T08:05:12;9.05;;;8.35;;
65037;SDS011;51605;47.040;15.294;2022-12-18T08:07:38;8.02;;;7.43;;
65037;SDS011;51605;47.040;15.294;2022-12-18T08:10:04;7.43;;;6.78;;
65037;SDS011;51605;47.040;15.294;2022-12-18T08:12:31;9.75;;;8.95;;
65037;SDS011;51605;47.040;15.294;2022-12-18T08:14:56;9.30;;;8.40;;
65037;SDS011;51605;47.040;15.294;2022-12-18T08:17:22;10.70;;;10.00;;
65037;SDS011;51605;47.040;15.294;2022-12-18T08:19:48;8.75;;;8.13;;
65037;SDS011;51605;47.040;15.294;2022-12-18T08:22:13;7.82;;;7.25;;
65037;SDS011;51605;47.040;15.294;2022-12-18T08:24:39;10.07;;;9.35;;
65037;SDS011;51605;47.040;15.294;2022-12-18T08:27:04;8.35;;;7.75;;
65037;SDS011;51605;47.040;15.294;2022-12-18T08:29:30;9.52;;;8.80;;
65037;SDS011;51605;47.040;15.294;2022-12-18T08:31:57;7.43;;;6.67;;
65037;SDS011;51605;47.040;15.294;2022-12-18T08:34:22;11.00;;;7.72;;
65037;SDS011;51605;47.040;15.294;2022-12-18T08:36:48;11.93;;;8.18;;
65037;SDS011;51605;47.040;15.294;2022-12-18T08:39:14;9.43;;;8.65;;
65037;SDS011;51605;47.040;15.294;2022-12-18T08:41:39;10.98;;;10.00;;
65037;SDS011;51605;47.040;15.294;2022-12-18T08:44:07;9.05;;;8.23;;
65037;SDS011;51605;47.040;15.294;2022-12-18T08:46:51;8.43;;;7.68;;
65037;SDS011;51605;47.040;15.294;2022-12-18T08:49:16;8.48;;;6.68;;
65037;SDS011;51605;47.040;15.294;2022-12-18T08:51:42;10.43;;;8.23;;
65037;SDS011;51605;47.040;15.294;2022-12-18T08:54:08;13.68;;;12.38;;
65037;SDS011;51605;47.040;15.294;2022-12-18T08:56:36;13.77;;;12.68;;
65037;SDS011;51605;47.040;15.294;2022-12-18T08:59:02;8.68;;;7.88;;
65037;SDS011;51605;47.040;15.294;2022-12-18T09:01:29;13.13;;;11.82;;
65037;SDS011;51605;47.040;15.294;2022-12-18T09:03:55;12.18;;;11.18;;
65037;SDS011;51605;47.040;15.294;2022-12-18T09:06:21;12.52;;;11.45;;
65037;SDS011;51605;47.040;15.294;2022-12-18T09:08:47;18.90;;;17.35;;
65037;SDS011;51605;47.040;15.294;2022-12-18T09:11:14;12.98;;;11.93;;
65037;SDS011;51605;47.040;15.294;2022-12-18T09:13:44;10.98;;;9.98;;
65037;SDS011;51605;47.040;15.294;2022-12-18T09:16:09;12.85;;;11.75;;
65037;SDS011;51605;47.040;15.294;2022-12-18T09:18:35;12.43;;;10.95;;
65037;SDS011;51605;47.040;15.294;2022-12-18T09:21:06;12.20;;;10.93;;
65037;SDS011;51605;47.040;15.294;2022-12-18T09:23:36;10.63;;;9.43;;
65037;SDS011;51605;47.040;15.294;2022-12-18T09:26:02;14.27;;;13.05;;
65037;SDS011;51605;47.040;15.294;2022-12-18T09:28:28;16.35;;;14.98;;
65037;SDS011;51605;47.040;15.294;2022-12-18T09:30:53;14.32;;;13.10;;
65037;SDS011;51605;47.040;15.294;2022-12-18T09:33:19;13.43;;;12.23;;
65037;SDS011;51605;47.040;15.294;2022-12-18T09:35:45;14.68;;;13.50;;
65037;SDS011;51605;47.040;15.294;2022-12-18T09:38:12;17.48;;;16.13;;
65037;SDS011;51605;47.040;15.294;2022-12-18T09:40:42;11.98;;;10.85;;
65037;SDS011;51605;47.040;15.294;2022-12-18T09:43:22;11.50;;;10.52;;
65037;SDS011;51605;47.040;15.294;2022-12-18T09:45:55;12.02;;;10.93;;
65037;SDS011;51605;47.040;15.294;2022-12-18T09:48:33;12.43;;;11.23;;
65037;SDS011;51605;47.040;15.294;2022-12-18T09:51:05;7.07;;;5.05;;
65037;SDS011;51605;47.040;15.294;2022-12-18T09:53:39;9.18;;;8.45;;
65037;SDS011;51605;47.040;15.294;2022-12-18T09:56:10;10.35;;;9.55;;
65037;SDS011;51605;47.040;15.294;2022-12-18T09:58:41;10.13;;;8.90;;
65037;SDS011;51605;47.040;15.294;2022-12-18T10:01:18;10.98;;;10.07;;
65037;SDS011;51605;47.040;15.294;2022-12-18T10:03:47;9.48;;;8.68;;
65037;SDS011;51605;47.040;15.294;2022-12-18T10:06:15;3.33;;;2.08;;
65037;SDS011;51605;47.040;15.294;2022-12-18T10:09:25;5.57;;;3.45;;
65037;SDS011;51605;47.040;15.294;2022-12-18T10:15:48;4.97;;;4.05;;
65037;SDS011;51605;47.040;15.294;2022-12-18T10:18:13;5.97;;;3.45;;
65037;SDS011;51605;47.040;15.294;2022-12-18T10:20:51;6.35;;;3.30;;
65037;SDS011;51605;47.040;15.294;2022-12-18T10:26:03;5.88;;;4.75;;
65037;SDS011;51605;47.040;15.294;2022-12-18T10:28:31;8.13;;;4.45;;
65037;SDS011;51605;47.040;15.294;2022-12-18T10:31:00;7.15;;;3.65;;
65037;SDS011;51605;47.040;15.294;2022-12-18T10:33:28;4.53;;;3.97;;
65037;SDS011;51605;47.040;15.294;2022-12-18T10:35:56;3.63;;;2.97;;
65037;SDS011;51605;47.040;15.294;2022-12-18T10:43:22;7.53;;;5.85;;
65037;SDS011;51605;47.040;15.294;2022-12-18T10:53:57;5.78;;;4.75;;
65037;SDS011;51605;47.040;15.294;2022-12-18T10:56:32;4.35;;;2.70;;
65037;SDS011;51605;47.040;15.294;2022-12-18T10:59:02;5.18;;;3.30;;
65037;SDS011;51605;47.040;15.294;2022-12-18T11:06:52;6.43;;;5.82;;
65037;SDS011;51605;47.040;15.294;2022-12-18T11:14:31;5.20;;;3.40;;
65037;SDS011;51605;47.040;15.294;2022-12-18T11:17:18;7.50;;;6.80;;
65037;SDS011;51605;47.040;15.294;2022-12-18T11:19:58;10.32;;;9.38;;
65037;SDS011;51605;47.040;15.294;2022-12-18T11:22:31;14.90;;;13.63;;
65037;SDS011;51605;47.040;15.294;2022-12-18T11:25:05;15.77;;;14.57;;
65037;SDS011;51605;47.040;15.294;2022-12-18T11:27:37;14.55;;;13.27;;
65037;SDS011;51605;47.040;15.294;2022-12-18T11:33:12;9.52;;;8.68;;
65037;SDS011;51605;47.040;15.294;2022-12-18T11:38:24;6.32;;;5.75;;
65037;SDS011;51605;47.040;15.294;2022-12-18T11:41:00;5.90;;;5.30;;
65037;SDS011;51605;47.040;15.294;2022-12-18T11:43:54;6.28;;;5.75;;
65037;SDS011;51605;47.040;15.294;2022-12-18T11:47:09;10.35;;;9.45;;
65037;SDS011;51605;47.040;15.294;2022-12-18T11:49:24;12.80;;;11.50;;
65037;SDS011;51605;47.040;15.294;2022-12-18T11:52:04;11.77;;;9.93;;
65037;SDS011;51605;47.040;15.294;2022-12-18T11:54:34;16.80;;;15.40;;
65037;SDS011;51605;47.040;15.294;2022-12-18T12:16:34;20.83;;;18.80;;
65037;SDS011;51605;47.040;15.294;2022-12-18T12:21:58;10.70;;;7.38;;
65037;SDS011;51605;47.040;15.294;2022-12-18T12:24:53;10.15;;;6.57;;
65037;SDS011;51605;47.040;15.294;2022-12-18T12:30:16;15.43;;;13.82;;
65037;SDS011;51605;47.040;15.294;2022-12-18T12:36:11;9.35;;;5.45;;
65037;SDS011;51605;47.040;15.294;2022-12-18T12:38:51;9.55;;;8.02;;
65037;SDS011;51605;47.040;15.294;2022-12-18T12:41:23;14.18;;;10.73;;
65037;SDS011;51605;47.040;15.294;2022-12-18T12:44:15;14.50;;;13.18;;
65037;SDS011;51605;47.040;15.294;2022-12-18T12:46:45;10.43;;;9.27;;
65037;SDS011;51605;47.040;15.294;2022-12-18T12:49:17;14.48;;;11.80;;
65037;SDS011;51605;47.040;15.294;2022-12-18T12:51:51;9.88;;;8.13;;
65037;SDS011;51605;47.040;15.294;2022-12-18T12:54:24;14.38;;;10.15;;
65037;SDS011;51605;47.040;15.294;2022-12-18T13:00:05;10.18;;;8.70;;
65037;SDS011;51605;47.040;15.294;2022-12-18T13:02:42;13.30;;;8.00;;
65037;SDS011;51605;47.040;15.294;2022-12-18T13:08:50;7.68;;;6.90;;
65037;SDS011;51605;47.040;15.294;2022-12-18T13:11:34;14.68;;;12.65;;
65037;SDS011;51605;47.040;15.294;2022-12-18T13:14:32;10.05;;;7.95;;
65037;SDS011;51605;47.040;15.294;2022-12-18T13:17:17;11.05;;;9.85;;
65037;SDS011;51605;47.040;15.294;2022-12-18T13:22:46;7.68;;;6.63;;
65037;SDS011;51605;47.040;15.294;2022-12-18T13:27:57;10.38;;;8.35;;
65037;SDS011;51605;47.040;15.294;2022-12-18T13:35:51;7.65;;;6.15;;
65037;SDS011;51605;47.040;15.294;2022-12-18T13:38:22;9.02;;;5.28;;
65037;SDS011;51605;47.040;15.294;2022-12-18T13:51:26;7.78;;;4.90;;
65037;SDS011;51605;47.040;15.294;2022-12-18T13:56:32;7.35;;;5.20;;
65037;SDS011;51605;47.040;15.294;2022-12-18T14:02:00;8.88;;;7.63;;
65037;SDS011;51605;47.040;15.294;2022-12-18T14:04:35;7.95;;;6.25;;
65037;SDS011;51605;47.040;15.294;2022-12-18T14:09:33;6.75;;;5.55;;
65037;SDS011;51605;47.040;15.294;2022-12-18T14:12:01;9.43;;;8.43;;
65037;SDS011;51605;47.040;15.294;2022-12-18T14:14:47;9.50;;;8.45;;
65037;SDS011;51605;47.040;15.294;2022-12-18T14:17:15;16.77;;;15.27;;
65037;SDS011;51605;47.040;15.294;2022-12-18T14:19:42;6.22;;;5.30;;
65037;SDS011;51605;47.040;15.294;2022-12-18T14:22:16;10.43;;;9.40;;
65037;SDS011;51605;47.040;15.294;2022-12-18T14:24:44;9.98;;;8.20;;
65037;SDS011;51605;47.040;15.294;2022-12-18T14:27:20;9.23;;;6.97;;
65037;SDS011;51605;47.040;15.294;2022-12-18T14:29:48;8.35;;;7.35;;
65037;SDS011;51605;47.040;15.294;2022-12-18T14:32:18;8.83;;;7.87;;
65037;SDS011;51605;47.040;15.294;2022-12-18T14:34:45;10.93;;;9.35;;
65037;SDS011;51605;47.040;15.294;2022-12-18T14:37:13;7.75;;;6.97;;
65037;SDS011;51605;47.040;15.294;2022-12-18T14:39:51;12.05;;;10.98;;
65037;SDS011;51605;47.040;15.294;2022-12-18T14:42:30;10.13;;;9.05;;
65037;SDS011;51605;47.040;15.294;2022-12-18T14:48:00;13.18;;;11.98;;
65037;SDS011;51605;47.040;15.294;2022-12-18T14:50:26;11.48;;;10.32;;
65037;SDS011;51605;47.040;15.294;2022-12-18T14:52:51;23.70;;;21.65;;
65037;SDS011;51605;47.040;15.294;2022-12-18T14:55:18;13.07;;;11.88;;
65037;SDS011;51605;47.040;15.294;2022-12-18T14:57:45;19.70;;;18.02;;
65037;SDS011;51605;47.040;15.294;2022-12-18T15:00:17;11.75;;;10.65;;
65037;SDS011;51605;47.040;15.294;2022-12-18T15:03:03;12.43;;;11.20;;
65037;SDS011;51605;47.040;15.294;2022-12-18T15:05:32;9.55;;;8.48;;
65037;SDS011;51605;47.040;15.294;2022-12-18T15:07:59;8.40;;;7.18;;
65037;SDS011;51605;47.040;15.294;2022-12-18T15:10:30;12.10;;;10.98;;
65037;SDS011;51605;47.040;15.294;2022-12-18T15:17:59;12.75;;;11.48;;
65037;SDS011;51605;47.040;15.294;2022-12-18T15:20:55;16.92;;;15.38;;
65037;SDS011;51605;47.040;15.294;2022-12-18T15:26:11;9.77;;;8.82;;
65037;SDS011;51605;47.040;15.294;2022-12-18T15:36:12;15.00;;;13.60;;
65037;SDS011;51605;47.040;15.294;2022-12-18T15:38:39;14.43;;;13.15;;
65037;SDS011;51605;47.040;15.294;2022-12-18T15:41:05;11.27;;;10.18;;
65037;SDS011;51605;47.040;15.294;2022-12-18T15:43:37;8.85;;;7.97;;
65037;SDS011;51605;47.040;15.294;2022-12-18T15:46:04;19.20;;;17.63;;
65037;SDS011;51605;47.040;15.294;2022-12-18T15:48:40;17.02;;;15.48;;
65037;SDS011;51605;47.040;15.294;2022-12-18T15:51:10;13.88;;;12.73;;
65037;SDS011;51605;47.040;15.294;2022-12-18T15:53:52;12.65;;;11.43;;
65037;SDS011;51605;47.040;15.294;2022-12-18T15:56:19;17.42;;;15.93;;
65037;SDS011;51605;47.040;15.294;2022-12-18T15:59:11;18.35;;;16.67;;
65037;SDS011;51605;47.040;15.294;2022-12-18T16:01:38;15.00;;;13.65;;
65037;SDS011;51605;47.040;15.294;2022-12-18T16:04:04;17.13;;;15.57;;
65037;SDS011;51605;47.040;15.294;2022-12-18T16:06:30;18.25;;;16.70;;
65037;SDS011;51605;47.040;15.294;2022-12-18T16:08:56;21.60;;;19.70;;
65037;SDS011;51605;47.040;15.294;2022-12-18T16:11:23;21.23;;;19.63;;
65037;SDS011;51605;47.040;15.294;2022-12-18T16:14:03;29.50;;;27.13;;
65037;SDS011;51605;47.040;15.294;2022-12-18T16:16:30;26.02;;;23.77;;
65037;SDS011;51605;47.040;15.294;2022-12-18T16:18:56;14.18;;;12.93;;
65037;SDS011;51605;47.040;15.294;2022-12-18T16:21:22;17.33;;;15.95;;
65037;SDS011;51605;47.040;15.294;2022-12-18T16:23:47;32.58;;;30.10;;
65037;SDS011;51605;47.040;15.294;2022-12-18T16:26:13;24.88;;;22.75;;
65037;SDS011;51605;47.040;15.294;2022-12-18T16:28:39;20.15;;;18.52;;
65037;SDS011;51605;47.040;15.294;2022-12-18T16:31:04;10.13;;;9.18;;
65037;SDS011;51605;47.040;15.294;2022-12-18T16:33:32;9.55;;;8.65;;
65037;SDS011;51605;47.040;15.294;2022-12-18T16:35:59;10.60;;;9.25;;
65037;SDS011;51605;47.040;15.294;2022-12-18T16:38:25;10.98;;;9.48;;
65037;SDS011;51605;47.040;15.294;2022-12-18T16:40:51;12.05;;;9.57;;
65037;SDS011;51605;47.040;15.294;2022-12-18T16:43:35;10.52;;;9.32;;
65037;SDS011;51605;47.040;15.294;2022-12-18T16:46:00;7.93;;;7.18;;
65037;SDS011;51605;47.040;15.294;2022-12-18T16:48:26;12.20;;;11.20;;
65037;SDS011;51605;47.040;15.294;2022-12-18T16:50:56;17.10;;;15.55;;
65037;SDS011;51605;47.040;15.294;2022-12-18T16:53:26;9.52;;;8.65;;
65037;SDS011;51605;47.040;15.294;2022-12-18T16:55:55;11.85;;;10.75;;
65037;SDS011;51605;47.040;15.294;2022-12-18T16:58:21;11.18;;;10.18;;
65037;SDS011;51605;47.040;15.294;2022-12-18T17:00:47;8.20;;;7.30;;
65037;SDS011;51605;47.040;15.294;2022-12-18T17:03:14;26.25;;;24.20;;
65037;SDS011;51605;47.040;15.294;2022-12-18T17:05:40;20.70;;;19.05;;
65037;SDS011;51605;47.040;15.294;2022-12-18T17:08:05;13.68;;;12.52;;
65037;SDS011;51605;47.040;15.294;2022-12-18T17:10:33;12.57;;;11.48;;
65037;SDS011;51605;47.040;15.294;2022-12-18T17:13:00;11.32;;;10.18;;
65037;SDS011;51605;47.040;15.294;2022-12-18T17:15:25;13.70;;;12.50;;
65037;SDS011;51605;47.040;15.294;2022-12-18T17:17:51;14.43;;;13.18;;
65037;SDS011;51605;47.040;15.294;2022-12-18T17:20:16;13.63;;;12.38;;